createdAt,value
2019-04-21T00:00:21.037Z,58.38
2019-04-21T00:01:05.041Z,58.42
2019-04-21T00:01:39.666Z,58.53
2019-04-21T00:02:06.166Z,58.52
2019-04-21T00:02:39.737Z,58.59
2019-04-21T00:03:18.181Z,58.72
2019-04-21T00:03:50.284Z,58.73
2019-04-21T00:04:30.712Z,58.69
2019-04-21T00:05:10.751Z,58.78
2019-04-21T00:05:45.841Z,58.66
2019-04-21T00:06:15.641Z,58.67
2019-04-21T00:06:51.062Z,58.85
2019-04-21T00:07:22.185Z,59.00
2019-04-21T00:08:05.059Z,59.09
2019-04-21T00:08:45.856Z,59.15
2019-04-21T00:09:02.698Z,59.14
2019-04-21T00:09:42.634Z,59.19
2019-04-21T00:10:12.090Z,59.26
2019-04-21T00:10:40.092Z,59.26
2019-04-21T00:11:17.168Z,59.28
2019-04-21T00:11:49.690Z,59.21
2019-04-21T00:12:17.964Z,59.15
2019-04-21T00:12:52.028Z,59.19
2019-04-21T00:13:23.843Z,59.18
2019-04-21T00:13:56.148Z,59.10
2019-04-21T00:14:26.909Z,59.06
2019-04-21T00:15:01.966Z,58.90
2019-04-21T00:15:31.081Z,58.84
2019-04-21T00:16:00.229Z,58.83
2019-04-21T00:16:39.076Z,58.78
2019-04-21T00:17:09.682Z,58.78
2019-04-21T00:17:38.963Z,58.72
2019-04-21T00:18:13.832Z,58.76
2019-04-21T00:18:57.516Z,58.76
2019-04-21T00:19:29.791Z,58.64
2019-04-21T00:20:15.471Z,58.75
2019-04-21T00:20:42.440Z,58.90
2019-04-21T00:21:20.514Z,58.90
2019-04-21T00:21:49.212Z,58.91
2019-04-21T00:22:31.538Z,58.67
2019-04-21T00:23:05.889Z,58.50
2019-04-21T00:23:39.648Z,58.66
2019-04-21T00:24:24.243Z,58.81
2019-04-21T00:24:59.538Z,58.92
2019-04-21T00:25:32.051Z,59.10
2019-04-21T00:26:02.072Z,59.13
2019-04-21T00:26:40.281Z,59.19
2019-04-21T00:27:13.888Z,59.21
2019-04-21T00:27:47.395Z,59.22
2019-04-21T00:28:25.369Z,59.13
2019-04-21T00:28:59.587Z,59.14
2019-04-21T00:29:30.340Z,59.17
2019-04-21T00:30:04.574Z,59.11
2019-04-21T00:30:40.067Z,59.10
2019-04-21T00:31:06.502Z,59.13
2019-04-21T00:31:38.040Z,59.10
2019-04-21T00:32:10.101Z,59.12
2019-04-21T00:32:41.969Z,59.10
2019-04-21T00:33:12.280Z,59.18
2019-04-21T00:33:40.989Z,59.21
2019-04-21T00:34:11.286Z,59.19
2019-04-21T00:34:52.322Z,59.22
2019-04-21T00:35:19.598Z,59.25
2019-04-21T00:35:57.732Z,59.23
2019-04-21T00:36:29.334Z,59.32
2019-04-21T00:37:05.780Z,59.42
2019-04-21T00:37:49.369Z,59.46
2019-04-21T00:38:26.236Z,59.54
2019-04-21T00:39:07.118Z,59.58
2019-04-21T00:39:36.448Z,59.63
2019-04-21T00:40:06.168Z,59.63
2019-04-21T00:40:36.137Z,59.70
2019-04-21T00:41:16.096Z,59.69
2019-04-21T00:41:43.752Z,59.69
2019-04-21T00:42:13.946Z,59.72
2019-04-21T00:42:43.655Z,59.74
2019-04-21T00:43:19.800Z,59.65
2019-04-21T00:43:52.160Z,59.57
2019-04-21T00:44:17.349Z,59.50
2019-04-21T00:44:58.236Z,59.49
2019-04-21T00:45:27.522Z,59.56
2019-04-21T00:45:57.807Z,59.70
2019-04-21T00:46:34.814Z,59.73
2019-04-21T00:47:08.542Z,59.80
2019-04-21T00:47:46.196Z,59.62
2019-04-21T00:48:25.829Z,59.51
2019-04-21T00:48:53.590Z,59.45
2019-04-21T00:49:23.182Z,59.31
2019-04-21T00:50:05.203Z,59.32
2019-04-21T00:50:48.754Z,59.33
2019-04-21T00:52:07.551Z,59.31
2019-04-21T00:52:41.250Z,59.36
2019-04-21T00:53:22.471Z,59.33
2019-04-21T00:54:01.357Z,59.25
2019-04-21T00:54:41.697Z,59.21
2019-04-21T00:55:25.058Z,59.14
2019-04-21T00:55:53.564Z,59.12
2019-04-21T00:56:35.370Z,59.17
2019-04-21T00:56:56.931Z,59.18
2019-04-21T00:57:27.417Z,59.23
2019-04-21T00:58:37.122Z,59.27
2019-04-21T00:59:05.714Z,59.24
2019-04-21T00:59:40.279Z,59.23
2019-04-21T01:00:11.665Z,59.26
2019-04-21T01:00:46.460Z,59.24
2019-04-21T01:01:14.964Z,59.22
2019-04-21T01:01:47.971Z,59.32
2019-04-21T01:02:26.119Z,59.31
2019-04-21T01:02:56.092Z,59.30
2019-04-21T01:03:36.173Z,59.26
2019-04-21T01:04:04.836Z,59.25
2019-04-21T01:04:36.871Z,59.31
2019-04-21T01:05:11.113Z,59.31
2019-04-21T01:05:49.853Z,59.35
2019-04-21T01:06:16.485Z,59.33
2019-04-21T01:06:48.056Z,59.33
2019-04-21T01:07:21.467Z,59.32
2019-04-21T01:07:50.615Z,59.31
2019-04-21T01:08:28.223Z,59.38
2019-04-21T01:09:00.906Z,59.40
2019-04-21T01:09:27.573Z,59.47
2019-04-21T01:09:58.966Z,59.49
2019-04-21T01:10:28.943Z,59.50
2019-04-21T01:11:15.328Z,59.52
2019-04-21T01:11:47.348Z,59.61
2019-04-21T01:12:19.059Z,59.66
2019-04-21T01:13:02.655Z,59.73
2019-04-21T01:13:27.864Z,59.78
2019-04-21T01:13:58.022Z,59.88
2019-04-21T01:14:35.870Z,60.04
2019-04-21T01:15:10.668Z,60.08
2019-04-21T01:15:43.589Z,60.17
2019-04-21T01:16:14.515Z,60.29
2019-04-21T01:16:45.777Z,60.39
2019-04-21T01:17:20.228Z,60.55
2019-04-21T01:17:51.946Z,60.73
2019-04-21T01:18:20.733Z,60.87
2019-04-21T01:18:57.718Z,60.90
2019-04-21T01:19:26.697Z,60.95
2019-04-21T01:19:57.227Z,61.01
2019-04-21T01:20:17.678Z,61.10
2019-04-21T01:20:48.070Z,61.18
2019-04-21T01:21:19.262Z,61.27
2019-04-21T01:21:50.946Z,61.30
2019-04-21T01:22:22.138Z,61.33
2019-04-21T01:22:53.716Z,61.39
2019-04-21T01:23:25.551Z,61.38
2019-04-21T01:24:07.941Z,61.44
2019-04-21T01:24:34.712Z,61.48
2019-04-21T01:25:14.467Z,61.49
2019-04-21T01:25:46.053Z,61.52
2019-04-21T01:26:22.641Z,61.59
2019-04-21T01:26:59.621Z,61.63
2019-04-21T01:27:39.810Z,61.77
2019-04-21T01:28:03.875Z,61.82
2019-04-21T01:28:41.045Z,61.82
2019-04-21T01:29:12.095Z,61.85
2019-04-21T01:29:53.100Z,61.93
2019-04-21T01:30:31.196Z,61.94
2019-04-21T01:30:57.125Z,61.95
2019-04-21T01:31:30.608Z,62.04
2019-04-21T01:32:13.454Z,62.25
2019-04-21T01:32:46.843Z,62.35
2019-04-21T01:33:16.327Z,62.21
2019-04-21T01:33:50.680Z,62.13
2019-04-21T01:34:20.595Z,62.00
2019-04-21T01:34:54.014Z,62.04
2019-04-21T01:35:25.437Z,62.02
2019-04-21T01:35:58.097Z,62.09
2019-04-21T01:36:33.687Z,62.10
2019-04-21T01:36:58.453Z,62.24
2019-04-21T01:37:47.953Z,62.46
2019-04-21T01:38:14.247Z,62.59
2019-04-21T01:38:52.425Z,63.22
2019-04-21T01:39:22.532Z,63.62
2019-04-21T01:39:53.264Z,63.38
2019-04-21T01:40:28.987Z,62.58
2019-04-21T01:41:21.020Z,61.70
2019-04-21T01:42:03.303Z,58.81
2019-04-21T01:42:38.176Z,57.00
2019-04-21T01:43:14.817Z,55.05
2019-04-21T01:43:45.806Z,53.89
2019-04-21T01:44:24.969Z,53.16
2019-04-21T01:44:54.868Z,52.72
2019-04-21T01:45:22.392Z,52.56
2019-04-21T01:45:53.586Z,52.50
2019-04-21T01:46:29.629Z,52.62
2019-04-21T01:46:58.233Z,52.77
2019-04-21T01:47:36.106Z,52.96
2019-04-21T01:48:05.797Z,53.13
2019-04-21T01:48:39.118Z,53.39
2019-04-21T01:49:13.140Z,53.63
2019-04-21T01:49:44.935Z,53.79
2019-04-21T01:50:26.053Z,54.06
2019-04-21T01:50:55.587Z,54.30
2019-04-21T01:51:45.376Z,54.54
2019-04-21T01:53:36.435Z,54.99
2019-04-21T01:54:16.000Z,55.18
2019-04-21T01:54:55.861Z,55.49
2019-04-21T01:55:28.884Z,55.59
2019-04-21T01:56:11.731Z,55.85
2019-04-21T01:57:02.121Z,55.92
2019-04-21T01:57:34.707Z,56.25
2019-04-21T01:58:09.361Z,56.63
2019-04-21T01:58:41.676Z,56.80
2019-04-21T01:59:08.975Z,56.90
2019-04-21T01:59:54.350Z,57.00
2019-04-21T02:00:30.504Z,57.10
2019-04-21T02:01:03.601Z,57.14
2019-04-21T02:01:38.837Z,57.26
2019-04-21T02:02:11.008Z,57.34
2019-04-21T02:02:48.635Z,57.41
2019-04-21T02:03:38.845Z,57.67
2019-04-21T02:03:58.435Z,57.95
2019-04-21T02:04:29.238Z,58.02
2019-04-21T02:05:03.212Z,58.19
2019-04-21T02:05:39.357Z,58.39
2019-04-21T02:06:13.306Z,58.50
2019-04-21T02:06:41.300Z,58.68
2019-04-21T02:07:11.625Z,58.76
2019-04-21T02:07:45.875Z,58.90
2019-04-21T02:08:15.524Z,59.01
2019-04-21T02:08:49.305Z,59.18
2019-04-21T02:09:27.373Z,59.30
2019-04-21T02:10:05.143Z,59.39
2019-04-21T02:10:40.386Z,59.62
2019-04-21T02:11:13.866Z,59.73
2019-04-21T02:11:43.359Z,59.93
2019-04-21T02:12:18.925Z,60.08
2019-04-21T02:12:51.066Z,60.23
2019-04-21T02:13:17.647Z,60.32
2019-04-21T02:14:03.913Z,60.42
2019-04-21T02:14:31.547Z,60.53
2019-04-21T02:15:07.717Z,60.69
2019-04-21T02:15:46.971Z,60.79
2019-04-21T02:16:11.424Z,60.78
2019-04-21T02:16:40.553Z,60.83
2019-04-21T02:17:18.700Z,60.87
2019-04-21T02:17:46.998Z,60.95
2019-04-21T02:18:22.093Z,60.98
2019-04-21T02:18:54.469Z,60.98
2019-04-21T02:19:27.856Z,61.09
2019-04-21T02:19:55.177Z,61.21
2019-04-21T02:20:25.737Z,61.32
2019-04-21T02:20:53.851Z,61.40
2019-04-21T02:21:36.967Z,61.47
2019-04-21T02:22:12.541Z,61.48
2019-04-21T02:23:07.418Z,61.57
2019-04-21T02:23:34.354Z,61.65
2019-04-21T02:23:58.697Z,61.73
2019-04-21T02:24:36.496Z,62.05
2019-04-21T02:25:06.375Z,62.26
2019-04-21T02:25:50.980Z,62.06
2019-04-21T02:26:09.732Z,61.86
2019-04-21T02:26:44.379Z,61.78
2019-04-21T02:27:14.872Z,61.69
2019-04-21T02:27:51.551Z,61.58
2019-04-21T02:28:33.045Z,61.45
2019-04-21T02:28:57.436Z,61.44
2019-04-21T02:29:33.004Z,61.50
2019-04-21T02:30:00.066Z,61.57
2019-04-21T02:30:52.167Z,61.56
2019-04-21T02:31:45.259Z,61.68
2019-04-21T02:32:27.904Z,61.91
2019-04-21T02:33:03.780Z,61.92
2019-04-21T02:33:38.722Z,61.86
2019-04-21T02:34:02.719Z,61.84
2019-04-21T02:35:14.231Z,61.77
2019-04-21T02:36:00.542Z,61.72
2019-04-21T02:36:53.479Z,61.74
2019-04-21T02:38:03.842Z,61.96
2019-04-21T02:38:33.836Z,62.20
2019-04-21T02:39:11.507Z,62.23
2019-04-21T02:39:40.597Z,62.16
2019-04-21T02:40:17.358Z,62.06
2019-04-21T02:41:06.060Z,62.13
2019-04-21T02:41:52.130Z,62.23
2019-04-21T02:42:18.687Z,62.23
2019-04-21T02:42:56.111Z,62.29
2019-04-21T02:44:02.255Z,62.24
2019-04-21T02:44:38.614Z,62.11
2019-04-21T02:45:43.480Z,62.44
2019-04-21T02:46:13.013Z,62.38
2019-04-21T02:46:45.406Z,62.23
2019-04-21T02:47:34.545Z,62.06
2019-04-21T02:47:54.851Z,61.97
2019-04-21T02:49:11.108Z,61.80
2019-04-21T02:49:45.237Z,61.76
2019-04-21T02:50:45.178Z,61.90
2019-04-21T02:51:12.562Z,61.80
2019-04-21T02:51:50.948Z,61.86
2019-04-21T02:52:30.082Z,61.91
2019-04-21T02:53:32.390Z,62.01
2019-04-21T02:54:35.951Z,61.99
2019-04-21T02:54:48.314Z,61.97
2019-04-21T02:55:02.375Z,61.91
2019-04-21T02:56:13.894Z,61.92
2019-04-21T02:56:43.808Z,61.87
2019-04-21T02:57:49.403Z,61.95
2019-04-21T02:58:42.160Z,61.93
2019-04-21T02:59:20.012Z,61.78
2019-04-21T03:00:06.472Z,61.86
2019-04-21T03:00:32.867Z,61.87
2019-04-21T03:01:23.643Z,61.87
2019-04-21T03:02:03.611Z,61.86
2019-04-21T03:03:21.380Z,61.79
2019-04-21T03:03:58.815Z,61.69
2019-04-21T03:04:34.619Z,61.64
2019-04-21T03:05:29.135Z,61.76
2019-04-21T03:06:50.546Z,61.79
2019-04-21T03:08:34.284Z,61.46
2019-04-21T03:09:15.420Z,61.47
2019-04-21T03:10:12.316Z,62.02
2019-04-21T03:10:52.937Z,61.74
2019-04-21T03:11:21.981Z,61.60
2019-04-21T03:11:56.066Z,61.54
2019-04-21T03:13:03.648Z,61.56
2019-04-21T03:14:47.620Z,62.18
2019-04-21T03:16:42.999Z,61.71
2019-04-21T03:17:59.819Z,62.01
2019-04-21T03:19:48.235Z,63.16
2019-04-21T03:20:14.814Z,63.31
2019-04-21T03:21:48.991Z,61.30
2019-04-21T03:22:21.007Z,60.23
2019-04-21T03:22:59.944Z,58.99
2019-04-21T03:23:31.970Z,57.19
2019-04-21T03:23:59.585Z,55.41
2019-04-21T03:25:20.377Z,54.20
2019-04-21T03:26:24.219Z,53.09
2019-04-21T03:27:04.836Z,53.04
2019-04-21T03:27:56.910Z,53.46
2019-04-21T03:28:29.819Z,53.64
2019-04-21T03:30:13.277Z,54.30
2019-04-21T03:31:06.736Z,54.46
2019-04-21T03:35:00.293Z,55.94
2019-04-21T03:36:56.906Z,57.04
2019-04-21T03:37:32.955Z,57.23
2019-04-21T03:38:17.273Z,57.42
2019-04-21T03:38:31.821Z,57.58
2019-04-21T03:39:31.252Z,57.82
2019-04-21T03:40:03.319Z,57.97
2019-04-21T03:40:33.171Z,58.21
2019-04-21T03:41:12.368Z,58.49
2019-04-21T03:41:48.837Z,58.74
2019-04-21T03:42:47.711Z,59.17
2019-04-21T03:43:38.307Z,59.33
2019-04-21T03:44:02.955Z,59.52
2019-04-21T03:44:32.606Z,59.67
2019-04-21T03:45:03.640Z,59.75
2019-04-21T03:45:39.016Z,59.88
2019-04-21T03:46:08.174Z,59.98
2019-04-21T03:46:47.392Z,60.01
2019-04-21T03:47:43.489Z,60.31
2019-04-21T03:48:35.631Z,60.57
2019-04-21T03:50:05.229Z,61.00
2019-04-21T03:50:29.667Z,61.22
2019-04-21T03:51:15.857Z,61.36
2019-04-21T03:52:53.280Z,61.66
2019-04-21T03:53:24.920Z,61.90
2019-04-21T03:53:55.763Z,62.15
2019-04-21T03:54:26.909Z,62.03
2019-04-21T03:57:17.818Z,61.52
2019-04-21T03:58:02.075Z,61.70
2019-04-21T03:58:19.666Z,61.90
2019-04-21T03:58:54.163Z,62.04
2019-04-21T03:59:48.308Z,62.86
2019-04-21T04:00:33.639Z,63.49
2019-04-21T04:01:11.418Z,63.91
2019-04-21T04:02:06.783Z,64.32
2019-04-21T04:02:36.628Z,63.40
2019-04-21T04:03:26.780Z,61.34
2019-04-21T04:04:30.680Z,58.69
2019-04-21T04:04:52.802Z,56.45
2019-04-21T04:05:55.587Z,54.60
2019-04-21T04:06:28.045Z,53.72
2019-04-21T04:07:11.403Z,52.92
2019-04-21T04:07:52.029Z,52.64
2019-04-21T04:08:37.271Z,52.66
2019-04-21T04:09:52.739Z,53.01
2019-04-21T04:10:28.914Z,53.10
2019-04-21T04:11:04.632Z,53.51
2019-04-21T04:11:58.449Z,53.99
2019-04-21T04:12:38.199Z,54.30
2019-04-21T04:13:05.444Z,54.48
2019-04-21T04:14:44.443Z,54.92
2019-04-21T04:15:22.805Z,55.13
2019-04-21T04:15:56.192Z,55.30
2019-04-21T04:17:04.859Z,55.77
2019-04-21T04:18:07.726Z,56.15
2019-04-21T04:18:48.876Z,56.51
2019-04-21T04:19:09.150Z,56.78
2019-04-21T04:20:22.429Z,57.03
2019-04-21T04:21:00.358Z,57.30
2019-04-21T04:21:28.373Z,57.50
2019-04-21T04:22:15.400Z,57.60
2019-04-21T04:22:38.848Z,57.84
2019-04-21T04:23:03.362Z,58.07
2019-04-21T04:25:49.812Z,58.45
2019-04-21T04:26:26.045Z,58.55
2019-04-21T04:26:55.186Z,58.69
2019-04-21T04:28:49.772Z,58.67
2019-04-21T04:29:40.108Z,58.64
2019-04-21T04:30:47.607Z,58.95
2019-04-21T04:32:30.688Z,59.22
2019-04-21T04:32:59.219Z,59.42
2019-04-21T04:34:14.611Z,59.64
2019-04-21T04:34:48.498Z,59.72
2019-04-21T04:35:14.445Z,59.83
2019-04-21T04:36:50.284Z,60.04
2019-04-21T04:37:15.293Z,60.21
2019-04-21T04:38:39.240Z,60.76
2019-04-21T04:40:05.801Z,60.86
2019-04-21T04:40:39.419Z,61.10
2019-04-21T04:41:28.953Z,61.13
2019-04-21T04:44:46.632Z,61.64
2019-04-21T04:46:06.707Z,61.82
2019-04-21T04:46:52.821Z,61.84
2019-04-21T04:47:22.803Z,61.85
2019-04-21T04:47:56.554Z,61.86
2019-04-21T04:48:19.456Z,61.96
2019-04-21T04:49:10.978Z,62.00
2019-04-21T04:49:42.169Z,62.07
2019-04-21T04:50:15.463Z,62.30
2019-04-21T04:51:14.499Z,62.43
2019-04-21T04:51:58.639Z,62.39
2019-04-21T04:52:48.715Z,62.52
2019-04-21T04:53:50.684Z,63.84
2019-04-21T04:54:41.822Z,64.19
2019-04-21T04:55:01.796Z,63.84
2019-04-21T04:55:43.394Z,63.05
2019-04-21T04:56:12.162Z,61.90
2019-04-21T04:56:54.235Z,60.63
2019-04-21T04:57:45.520Z,59.19
2019-04-21T05:00:14.289Z,52.98
2019-04-21T05:00:54.590Z,52.81
2019-04-21T05:01:29.806Z,52.58
2019-04-21T05:01:53.136Z,52.67
2019-04-21T05:02:33.707Z,53.00
2019-04-21T05:02:48.934Z,53.06
2019-04-21T05:03:40.146Z,52.99
2019-04-21T05:04:00.391Z,52.89
2019-04-21T05:04:37.463Z,52.78
2019-04-21T05:05:19.420Z,52.90
2019-04-21T05:06:25.194Z,52.92
2019-04-21T05:07:21.332Z,53.05
2019-04-21T05:08:34.533Z,53.60
2019-04-21T05:09:07.923Z,53.60
2019-04-21T05:09:31.970Z,53.61
2019-04-21T05:09:59.508Z,53.66
2019-04-21T05:10:47.596Z,53.74
2019-04-21T05:11:28.365Z,53.65
2019-04-21T05:12:11.876Z,54.09
2019-04-21T05:13:06.214Z,54.39
2019-04-21T05:13:29.229Z,54.31
2019-04-21T05:14:02.689Z,54.43
2019-04-21T05:14:30.368Z,54.33
2019-04-21T05:15:10.133Z,54.42
2019-04-21T05:15:41.698Z,54.52
2019-04-21T05:16:11.832Z,54.58
2019-04-21T05:17:52.484Z,54.60
2019-04-21T05:18:25.142Z,54.43
2019-04-21T05:19:04.109Z,54.38
2019-04-21T05:20:26.094Z,54.72
2019-04-21T05:21:12.950Z,54.75
2019-04-21T05:22:17.197Z,55.02
2019-04-21T05:22:45.936Z,54.86
2019-04-21T05:23:11.955Z,54.82
2019-04-21T05:23:45.608Z,54.80
2019-04-21T05:24:16.512Z,54.94
2019-04-21T05:24:50.956Z,54.91
2019-04-21T05:25:23.056Z,55.02
2019-04-21T05:25:55.780Z,55.01
2019-04-21T05:26:25.804Z,54.94
2019-04-21T05:26:59.576Z,55.13
2019-04-21T05:27:33.555Z,55.24
2019-04-21T05:28:09.057Z,55.18
2019-04-21T05:28:41.893Z,55.08
2019-04-21T05:29:13.225Z,55.11
2019-04-21T05:30:03.193Z,55.12
2019-04-21T05:30:33.824Z,55.01
2019-04-21T05:31:15.166Z,55.03
2019-04-21T05:31:46.310Z,54.82
2019-04-21T05:32:28.292Z,54.98
2019-04-21T05:33:05.614Z,54.87
2019-04-21T05:33:46.004Z,55.28
2019-04-21T05:34:22.035Z,55.18
2019-04-21T05:34:56.898Z,55.26
2019-04-21T05:35:45.290Z,55.24
2019-04-21T05:36:20.380Z,55.17
2019-04-21T05:37:03.950Z,54.98
2019-04-21T05:37:35.402Z,54.81
2019-04-21T05:38:10.594Z,54.68
2019-04-21T05:38:47.777Z,54.61
2019-04-21T05:39:33.594Z,54.52
2019-04-21T05:40:10.242Z,54.40
2019-04-21T05:40:41.455Z,54.52
2019-04-21T05:41:14.362Z,54.49
2019-04-21T05:41:43.204Z,54.57
2019-04-21T05:42:24.993Z,54.56
2019-04-21T05:42:54.891Z,54.52
2019-04-21T05:43:36.094Z,54.34
2019-04-21T05:44:03.798Z,54.29
2019-04-21T05:44:57.154Z,54.36
2019-04-21T05:45:19.570Z,54.22
2019-04-21T05:45:47.414Z,54.15
2019-04-21T05:46:21.269Z,54.01
2019-04-21T05:46:59.402Z,53.97
2019-04-21T05:47:34.907Z,53.94
2019-04-21T05:48:11.697Z,53.98
2019-04-21T05:48:39.651Z,54.05
2019-04-21T05:49:10.985Z,53.98
2019-04-21T05:49:49.840Z,53.96
2019-04-21T05:50:23.840Z,53.88
2019-04-21T05:50:58.879Z,53.77
2019-04-21T05:51:33.756Z,53.74
2019-04-21T05:52:05.528Z,53.58
2019-04-21T05:52:35.654Z,53.58
2019-04-21T05:53:20.241Z,53.72
2019-04-21T05:53:49.270Z,53.99
2019-04-21T05:54:29.642Z,53.93
2019-04-21T05:54:57.807Z,53.96
2019-04-21T05:55:34.057Z,53.85
2019-04-21T05:56:06.193Z,53.76
2019-04-21T05:56:35.166Z,53.59
2019-04-21T05:57:05.275Z,53.49
2019-04-21T05:57:44.231Z,53.51
2019-04-21T05:58:27.312Z,53.45
2019-04-21T05:58:43.993Z,53.42
2019-04-21T05:59:15.162Z,53.31
2019-04-21T05:59:49.157Z,53.15
2019-04-21T06:00:39.704Z,53.04
2019-04-21T06:01:42.032Z,52.62
2019-04-21T06:02:52.091Z,52.28
2019-04-21T06:03:29.247Z,52.10
2019-04-21T06:03:57.539Z,52.19
2019-04-21T06:04:52.338Z,52.29
2019-04-21T06:06:13.966Z,52.08
2019-04-21T06:06:39.681Z,52.29
2019-04-21T06:07:21.549Z,52.39
2019-04-21T06:07:47.226Z,52.28
2019-04-21T06:08:18.127Z,52.27
2019-04-21T06:08:53.671Z,52.38
2019-04-21T06:09:30.454Z,52.30
2019-04-21T06:10:45.934Z,52.19
2019-04-21T06:11:19.066Z,52.10
2019-04-21T06:11:45.797Z,52.05
2019-04-21T06:12:14.698Z,52.01
2019-04-21T06:12:52.262Z,51.91
2019-04-21T06:13:33.452Z,52.02
2019-04-21T06:14:31.181Z,52.32
2019-04-21T06:15:03.830Z,52.48
2019-04-21T06:15:39.610Z,52.36
2019-04-21T06:16:07.308Z,52.18
2019-04-21T06:16:49.457Z,52.29
2019-04-21T06:17:19.790Z,52.19
2019-04-21T06:17:52.203Z,52.28
2019-04-21T06:18:27.195Z,52.29
2019-04-21T06:19:38.580Z,52.23
2019-04-21T06:20:01.884Z,52.12
2019-04-21T06:20:35.475Z,51.89
2019-04-21T06:21:40.053Z,51.54
2019-04-21T06:22:11.911Z,51.52
2019-04-21T06:22:50.567Z,51.35
2019-04-21T06:23:28.717Z,51.34
2019-04-21T06:23:51.440Z,50.98
2019-04-21T06:24:39.038Z,50.58
2019-04-21T06:26:17.904Z,50.64
2019-04-21T06:26:56.269Z,50.47
2019-04-21T06:27:16.341Z,50.21
2019-04-21T06:27:44.400Z,50.23
2019-04-21T06:28:21.026Z,49.73
2019-04-21T06:29:03.580Z,49.68
2019-04-21T06:29:30.215Z,49.61
2019-04-21T06:30:01.860Z,49.45
2019-04-21T06:30:42.626Z,49.40
2019-04-21T06:31:18.096Z,49.15
2019-04-21T06:32:30.373Z,48.98
2019-04-21T06:33:20.195Z,48.96
2019-04-21T06:33:50.478Z,48.80
2019-04-21T06:34:25.031Z,48.69
2019-04-21T06:35:23.772Z,48.69
2019-04-21T06:36:56.676Z,48.23
2019-04-21T06:37:21.656Z,48.25
2019-04-21T06:37:59.887Z,48.20
2019-04-21T06:38:25.485Z,47.60
2019-04-21T06:39:12.046Z,47.68
2019-04-21T06:39:34.852Z,47.73
2019-04-21T06:40:40.678Z,47.62
2019-04-21T06:41:05.095Z,47.49
2019-04-21T06:41:40.919Z,47.33
2019-04-21T06:42:09.088Z,47.23
2019-04-21T06:42:50.247Z,47.18
2019-04-21T06:43:27.419Z,47.20
2019-04-21T06:43:56.262Z,47.27
2019-04-21T06:44:20.325Z,47.33
2019-04-21T06:45:03.763Z,47.34
2019-04-21T06:45:34.870Z,47.22
2019-04-21T06:46:08.980Z,47.33
2019-04-21T06:46:40.463Z,47.32
2019-04-21T06:47:16.283Z,47.37
2019-04-21T06:48:18.444Z,47.59
2019-04-21T06:48:57.049Z,47.73
2019-04-21T06:49:22.275Z,47.85
2019-04-21T06:49:58.977Z,47.07
2019-04-21T06:50:34.621Z,47.09
2019-04-21T06:51:10.727Z,47.36
2019-04-21T06:51:33.734Z,47.42
2019-04-21T06:52:20.622Z,47.47
2019-04-21T06:52:50.007Z,46.85
2019-04-21T06:53:20.674Z,46.97
2019-04-21T06:53:52.697Z,46.99
2019-04-21T06:54:23.904Z,46.51
2019-04-21T06:54:56.108Z,45.89
2019-04-21T06:55:27.900Z,45.97
2019-04-21T06:56:04.627Z,46.17
2019-04-21T06:57:16.507Z,46.32
2019-04-21T06:57:39.968Z,46.27
2019-04-21T06:58:10.162Z,46.10
2019-04-21T06:58:48.151Z,45.72
2019-04-21T06:59:17.048Z,45.93
2019-04-21T06:59:54.348Z,45.66
2019-04-21T07:00:24.744Z,45.45
2019-04-21T07:01:00.467Z,45.40
2019-04-21T07:01:39.032Z,45.58
2019-04-21T07:02:24.337Z,45.47
2019-04-21T07:03:25.346Z,45.05
2019-04-21T07:04:24.252Z,45.01
2019-04-21T07:04:54.723Z,45.19
2019-04-21T07:05:34.644Z,45.66
2019-04-21T07:06:06.533Z,45.93
2019-04-21T07:06:36.272Z,46.05
2019-04-21T07:07:08.316Z,46.08
2019-04-21T07:07:43.404Z,46.14
2019-04-21T07:08:30.919Z,45.70
2019-04-21T07:08:53.260Z,45.71
2019-04-21T07:09:25.707Z,45.77
2019-04-21T07:09:55.072Z,45.52
2019-04-21T07:10:30.733Z,45.38
2019-04-21T07:10:56.741Z,45.43
2019-04-21T07:11:33.727Z,45.52
2019-04-21T07:12:10.086Z,45.35
2019-04-21T07:12:39.401Z,45.28
2019-04-21T07:13:08.112Z,45.33
2019-04-21T07:13:49.135Z,45.22
2019-04-21T07:14:52.699Z,45.15
2019-04-21T07:15:30.405Z,44.96
2019-04-21T07:16:06.693Z,44.15
2019-04-21T07:16:32.133Z,43.87
2019-04-21T07:17:11.436Z,43.73
2019-04-21T07:18:13.691Z,44.00
2019-04-21T07:18:51.254Z,44.02
2019-04-21T07:19:42.779Z,44.02
2019-04-21T07:19:55.376Z,44.06
2019-04-21T07:20:22.004Z,43.95
2019-04-21T07:21:02.787Z,43.92
2019-04-21T07:21:33.823Z,43.88
2019-04-21T07:22:12.337Z,43.81
2019-04-21T07:22:44.618Z,43.97
2019-04-21T07:23:16.271Z,44.08
2019-04-21T07:23:46.251Z,43.94
2019-04-21T07:24:56.019Z,43.51
2019-04-21T07:25:27.972Z,43.67
2019-04-21T07:26:05.819Z,43.75
2019-04-21T07:26:36.712Z,43.51
2019-04-21T07:27:08.977Z,43.53
2019-04-21T07:27:43.052Z,43.60
2019-04-21T07:28:12.843Z,43.46
2019-04-21T07:28:52.707Z,43.46
2019-04-21T07:29:20.636Z,42.89
2019-04-21T07:29:55.157Z,42.80
2019-04-21T07:30:31.728Z,42.76
2019-04-21T07:31:03.657Z,42.83
2019-04-21T07:31:40.237Z,42.80
2019-04-21T07:32:22.186Z,42.29
2019-04-21T07:32:44.209Z,42.16
2019-04-21T07:33:33.189Z,42.37
2019-04-21T07:34:51.516Z,42.23
2019-04-21T07:35:28.123Z,42.30
2019-04-21T07:35:59.385Z,42.21
2019-04-21T07:36:39.793Z,42.20
2019-04-21T07:37:20.682Z,42.02
2019-04-21T07:37:35.470Z,41.64
2019-04-21T07:38:12.071Z,40.77
2019-04-21T07:38:41.268Z,40.92
2019-04-21T07:39:15.295Z,40.87
2019-04-21T07:39:52.755Z,41.04
2019-04-21T07:40:21.765Z,41.09
2019-04-21T07:40:52.634Z,41.09
2019-04-21T07:41:25.104Z,41.32
2019-04-21T07:41:59.554Z,41.44
2019-04-21T07:42:35.519Z,41.24
2019-04-21T07:43:05.650Z,40.37
2019-04-21T07:43:41.322Z,40.10
2019-04-21T07:44:10.375Z,39.59
2019-04-21T07:44:40.894Z,39.96
2019-04-21T07:45:19.499Z,39.99
2019-04-21T07:45:49.611Z,40.31
2019-04-21T07:46:23.755Z,40.25
2019-04-21T07:46:58.552Z,40.34
2019-04-21T07:47:48.010Z,39.72
2019-04-21T07:48:26.308Z,39.59
2019-04-21T07:49:02.466Z,39.41
2019-04-21T07:49:41.543Z,39.21
2019-04-21T07:50:14.886Z,37.90
2019-04-21T07:51:09.164Z,38.41
2019-04-21T07:51:37.690Z,38.16
2019-04-21T07:52:22.369Z,38.35
2019-04-21T07:53:08.320Z,38.57
2019-04-21T07:53:52.522Z,38.59
2019-04-21T07:54:26.968Z,38.69
2019-04-21T07:55:01.634Z,38.85
2019-04-21T07:55:37.269Z,38.45
2019-04-21T07:56:16.192Z,38.38
2019-04-21T07:56:56.059Z,38.38
2019-04-21T07:57:34.475Z,38.03
2019-04-21T07:58:24.275Z,38.04
2019-04-21T07:58:51.049Z,38.22
2019-04-21T07:59:18.871Z,37.92
2019-04-21T08:00:01.467Z,37.79
2019-04-21T08:00:56.476Z,37.95
2019-04-21T08:01:31.421Z,38.00
2019-04-21T08:02:01.018Z,37.67
2019-04-21T08:02:37.339Z,37.72
2019-04-21T08:03:09.205Z,37.83
2019-04-21T08:03:42.843Z,38.06
2019-04-21T08:04:34.653Z,38.10
2019-04-21T08:05:07.513Z,38.23
2019-04-21T08:05:26.766Z,38.11
2019-04-21T08:05:58.446Z,37.99
2019-04-21T08:06:57.161Z,37.22
2019-04-21T08:07:05.206Z,36.92
2019-04-21T08:07:45.047Z,37.35
2019-04-21T08:07:59.565Z,37.57
2019-04-21T08:08:34.291Z,37.80
2019-04-21T08:09:12.232Z,37.62
2019-04-21T08:09:46.783Z,37.69
2019-04-21T08:10:15.667Z,37.35
2019-04-21T08:10:50.646Z,37.13
2019-04-21T08:11:21.012Z,37.17
2019-04-21T08:11:51.849Z,37.33
2019-04-21T08:12:24.668Z,37.35
2019-04-21T08:13:00.122Z,37.09
2019-04-21T08:13:42.968Z,37.26
2019-04-21T08:14:09.619Z,37.66
2019-04-21T08:14:42.891Z,37.54
2019-04-21T08:15:19.424Z,37.59
2019-04-21T08:15:52.839Z,37.73
2019-04-21T08:16:25.602Z,37.37
2019-04-21T08:16:57.659Z,37.66
2019-04-21T08:17:34.451Z,37.59
2019-04-21T08:18:02.711Z,37.73
2019-04-21T08:19:14.502Z,37.27
2019-04-21T08:19:36.898Z,37.24
2019-04-21T08:20:15.693Z,37.27
2019-04-21T08:20:47.900Z,37.35
2019-04-21T08:21:20.735Z,37.02
2019-04-21T08:22:00.096Z,36.80
2019-04-21T08:22:34.932Z,37.02
2019-04-21T08:23:39.915Z,37.17
2019-04-21T08:24:07.018Z,36.56
2019-04-21T08:24:45.253Z,36.66
2019-04-21T08:25:17.867Z,36.82
2019-04-21T08:26:03.693Z,36.18
2019-04-21T08:26:31.211Z,35.96
2019-04-21T08:27:01.809Z,36.05
2019-04-21T08:27:25.721Z,35.99
2019-04-21T08:27:59.856Z,35.87
2019-04-21T08:28:35.435Z,36.02
2019-04-21T08:29:12.613Z,36.07
2019-04-21T08:29:39.479Z,36.11
2019-04-21T08:30:11.551Z,35.92
2019-04-21T08:30:43.115Z,35.83
2019-04-21T08:31:30.536Z,35.77